sensor_id;sensor_type;location;lat;lon;timestamp;temperature;humidity
24468;DHT22;12634;50.852;5.676;2023-03-01T00:01:36;-1.50;99.90
24468;DHT22;12634;50.852;5.676;2023-03-01T00:04:03;-1.80;99.90
24468;DHT22;12634;50.852;5.676;2023-03-01T00:06:30;-2.00;99.90
24468;DHT22;12634;50.852;5.676;2023-03-01T00:08:57;-1.90;99.90
24468;DHT22;12634;50.852;5.676;2023-03-01T00:11:27;-1.80;99.90
24468;DHT22;12634;50.852;5.676;2023-03-01T00:13:56;-1.90;99.90
24468;DHT22;12634;50.852;5.676;2023-03-01T00:16:26;-2.00;99.90
24468;DHT22;12634;50.852;5.676;2023-03-01T00:18:54;-2.10;99.90
24468;DHT22;12634;50.852;5.676;2023-03-01T00:21:22;-2.20;99.90
24468;DHT22;12634;50.852;5.676;2023-03-01T00:23:49;-2.20;99.90
24468;DHT22;12634;50.852;5.676;2023-03-01T00:26:17;-2.00;99.90
24468;DHT22;12634;50.852;5.676;2023-03-01T00:28:47;-2.10;99.90
24468;DHT22;12634;50.852;5.676;2023-03-01T00:31:17;-2.00;99.90
24468;DHT22;12634;50.852;5.676;2023-03-01T00:33:45;-2.00;99.90
24468;DHT22;12634;50.852;5.676;2023-03-01T00:36:14;-1.90;99.90
24468;DHT22;12634;50.852;5.676;2023-03-01T00:38:43;-1.80;99.90
24468;DHT22;12634;50.852;5.676;2023-03-01T00:41:12;-1.80;99.90
24468;DHT22;12634;50.852;5.676;2023-03-01T00:43:40;-1.80;99.90
24468;DHT22;12634;50.852;5.676;2023-03-01T00:46:10;-1.90;99.90
24468;DHT22;12634;50.852;5.676;2023-03-01T00:48:38;-2.00;99.90
24468;DHT22;12634;50.852;5.676;2023-03-01T00:51:06;-2.20;99.90
24468;DHT22;12634;50.852;5.676;2023-03-01T00:53:34;-2.20;99.90
24468;DHT22;12634;50.852;5.676;2023-03-01T00:56:02;-2.10;99.90
24468;DHT22;12634;50.852;5.676;2023-03-01T00:58:29;-2.30;99.90
24468;DHT22;12634;50.852;5.676;2023-03-01T01:00:57;-2.30;99.90
24468;DHT22;12634;50.852;5.676;2023-03-01T01:03:25;-2.30;99.90
24468;DHT22;12634;50.852;5.676;2023-03-01T01:05:53;-2.30;99.90
24468;DHT22;12634;50.852;5.676;2023-03-01T01:08:21;-2.40;99.90
24468;DHT22;12634;50.852;5.676;2023-03-01T01:10:48;-2.60;99.90
24468;DHT22;12634;50.852;5.676;2023-03-01T01:13:15;-2.80;99.90
24468;DHT22;12634;50.852;5.676;2023-03-01T01:15:42;-2.60;99.90
24468;DHT22;12634;50.852;5.676;2023-03-01T01:18:09;-2.60;99.90
24468;DHT22;12634;50.852;5.676;2023-03-01T01:20:38;-2.60;99.90
24468;DHT22;12634;50.852;5.676;2023-03-01T01:23:05;-2.50;99.90
24468;DHT22;12634;50.852;5.676;2023-03-01T01:25:35;-2.50;99.90
24468;DHT22;12634;50.852;5.676;2023-03-01T01:28:03;-2.60;99.90
24468;DHT22;12634;50.852;5.676;2023-03-01T01:30:30;-2.40;99.90
24468;DHT22;12634;50.852;5.676;2023-03-01T01:32:57;-2.40;99.90
24468;DHT22;12634;50.852;5.676;2023-03-01T01:35:24;-2.70;99.90
24468;DHT22;12634;50.852;5.676;2023-03-01T01:37:53;-2.70;99.90
24468;DHT22;12634;50.852;5.676;2023-03-01T01:40:20;-2.60;99.90
24468;DHT22;12634;50.852;5.676;2023-03-01T01:42:47;-2.60;99.90
24468;DHT22;12634;50.852;5.676;2023-03-01T01:45:32;-2.80;99.90
24468;DHT22;12634;50.852;5.676;2023-03-01T01:48:03;-2.90;99.90
24468;DHT22;12634;50.852;5.676;2023-03-01T01:50:31;-3.10;99.90
24468;DHT22;12634;50.852;5.676;2023-03-01T01:53:08;-3.30;99.90
24468;DHT22;12634;50.852;5.676;2023-03-01T01:55:37;-3.20;99.90
24468;DHT22;12634;50.852;5.676;2023-03-01T01:58:09;-2.90;99.90
24468;DHT22;12634;50.852;5.676;2023-03-01T02:00:37;-2.70;99.90
24468;DHT22;12634;50.852;5.676;2023-03-01T02:03:08;-2.50;99.90
24468;DHT22;12634;50.852;5.676;2023-03-01T02:05:40;-2.80;99.90
24468;DHT22;12634;50.852;5.676;2023-03-01T02:08:13;-2.80;99.90
24468;DHT22;12634;50.852;5.676;2023-03-01T02:10:41;-2.70;99.90
24468;DHT22;12634;50.852;5.676;2023-03-01T02:13:09;-2.80;99.90
24468;DHT22;12634;50.852;5.676;2023-03-01T02:15:38;-2.70;99.90
24468;DHT22;12634;50.852;5.676;2023-03-01T02:18:06;-2.80;99.90
24468;DHT22;12634;50.852;5.676;2023-03-01T02:20:40;-2.80;99.90
24468;DHT22;12634;50.852;5.676;2023-03-01T02:23:13;-2.80;99.90
24468;DHT22;12634;50.852;5.676;2023-03-01T02:25:46;-2.70;99.90
24468;DHT22;12634;50.852;5.676;2023-03-01T02:28:25;-2.60;99.90
24468;DHT22;12634;50.852;5.676;2023-03-01T02:30:53;-2.80;99.90
24468;DHT22;12634;50.852;5.676;2023-03-01T02:33:39;-3.00;99.90
24468;DHT22;12634;50.852;5.676;2023-03-01T02:36:09;-3.00;99.90
24468;DHT22;12634;50.852;5.676;2023-03-01T02:38:39;-3.00;99.90
24468;DHT22;12634;50.852;5.676;2023-03-01T02:41:08;-3.00;99.90
24468;DHT22;12634;50.852;5.676;2023-03-01T02:43:37;-3.10;99.90
24468;DHT22;12634;50.852;5.676;2023-03-01T02:46:06;-3.10;99.90
24468;DHT22;12634;50.852;5.676;2023-03-01T02:48:45;-3.30;99.90
24468;DHT22;12634;50.852;5.676;2023-03-01T02:51:45;-3.40;99.90
24468;DHT22;12634;50.852;5.676;2023-03-01T02:54:20;-3.10;99.90
24468;DHT22;12634;50.852;5.676;2023-03-01T02:56:49;-3.00;99.90
24468;DHT22;12634;50.852;5.676;2023-03-01T02:59:20;-2.90;99.90
24468;DHT22;12634;50.852;5.676;2023-03-01T03:01:48;-2.90;99.90
24468;DHT22;12634;50.852;5.676;2023-03-01T03:04:17;-2.80;99.90
24468;DHT22;12634;50.852;5.676;2023-03-01T03:06:44;-2.80;99.90
24468;DHT22;12634;50.852;5.676;2023-03-01T03:09:12;-2.80;99.90
24468;DHT22;12634;50.852;5.676;2023-03-01T03:11:40;-3.10;99.90
24468;DHT22;12634;50.852;5.676;2023-03-01T03:14:09;-3.20;99.90
24468;DHT22;12634;50.852;5.676;2023-03-01T03:16:41;-3.20;99.90
24468;DHT22;12634;50.852;5.676;2023-03-01T03:19:09;-3.20;99.90
24468;DHT22;12634;50.852;5.676;2023-03-01T03:21:36;-3.10;99.90
24468;DHT22;12634;50.852;5.676;2023-03-01T03:24:04;-2.90;99.90
24468;DHT22;12634;50.852;5.676;2023-03-01T03:26:31;-2.80;99.90
24468;DHT22;12634;50.852;5.676;2023-03-01T03:28:59;-2.90;99.90
24468;DHT22;12634;50.852;5.676;2023-03-01T03:31:26;-2.90;99.90
24468;DHT22;12634;50.852;5.676;2023-03-01T03:33:55;-2.80;99.90
24468;DHT22;12634;50.852;5.676;2023-03-01T03:36:24;-2.70;99.90
24468;DHT22;12634;50.852;5.676;2023-03-01T03:38:51;-2.90;99.90
24468;DHT22;12634;50.852;5.676;2023-03-01T03:41:18;-3.20;99.90
24468;DHT22;12634;50.852;5.676;2023-03-01T03:43:45;-3.00;99.90
24468;DHT22;12634;50.852;5.676;2023-03-01T03:46:14;-3.20;99.90
24468;DHT22;12634;50.852;5.676;2023-03-01T03:48:44;-3.00;99.90
24468;DHT22;12634;50.852;5.676;2023-03-01T03:51:14;-3.00;99.90
24468;DHT22;12634;50.852;5.676;2023-03-01T03:53:42;-3.00;99.90
24468;DHT22;12634;50.852;5.676;2023-03-01T03:56:10;-3.00;99.90
24468;DHT22;12634;50.852;5.676;2023-03-01T03:58:38;-3.20;99.90
24468;DHT22;12634;50.852;5.676;2023-03-01T04:01:05;-3.40;99.90
24468;DHT22;12634;50.852;5.676;2023-03-01T04:03:33;-3.60;99.90
24468;DHT22;12634;50.852;5.676;2023-03-01T04:06:01;-3.50;99.90
24468;DHT22;12634;50.852;5.676;2023-03-01T04:08:31;-3.60;99.90
24468;DHT22;12634;50.852;5.676;2023-03-01T04:11:00;-3.50;99.90
24468;DHT22;12634;50.852;5.676;2023-03-01T04:13:47;-3.30;99.90
24468;DHT22;12634;50.852;5.676;2023-03-01T04:16:15;-3.30;99.90
24468;DHT22;12634;50.852;5.676;2023-03-01T04:18:42;-3.40;99.90
24468;DHT22;12634;50.852;5.676;2023-03-01T04:21:09;-3.50;99.90
24468;DHT22;12634;50.852;5.676;2023-03-01T04:23:40;-3.60;99.90
24468;DHT22;12634;50.852;5.676;2023-03-01T04:26:07;-3.50;99.90
24468;DHT22;12634;50.852;5.676;2023-03-01T04:28:37;-3.30;99.90
24468;DHT22;12634;50.852;5.676;2023-03-01T04:31:07;-3.60;99.90
24468;DHT22;12634;50.852;5.676;2023-03-01T04:33:40;-3.40;99.90
24468;DHT22;12634;50.852;5.676;2023-03-01T04:36:09;-3.40;99.90
24468;DHT22;12634;50.852;5.676;2023-03-01T04:38:37;-3.40;99.90
24468;DHT22;12634;50.852;5.676;2023-03-01T04:41:07;-3.60;99.90
24468;DHT22;12634;50.852;5.676;2023-03-01T04:43:35;-3.50;99.90
24468;DHT22;12634;50.852;5.676;2023-03-01T04:46:05;-3.50;99.90
24468;DHT22;12634;50.852;5.676;2023-03-01T04:48:35;-3.40;99.90
24468;DHT22;12634;50.852;5.676;2023-03-01T04:51:02;-3.60;99.90
24468;DHT22;12634;50.852;5.676;2023-03-01T04:53:30;-3.60;99.90
24468;DHT22;12634;50.852;5.676;2023-03-01T04:55:59;-3.50;99.90
24468;DHT22;12634;50.852;5.676;2023-03-01T04:58:28;-3.70;99.90
24468;DHT22;12634;50.852;5.676;2023-03-01T05:00:55;-3.70;99.90
24468;DHT22;12634;50.852;5.676;2023-03-01T05:03:22;-3.80;99.90
24468;DHT22;12634;50.852;5.676;2023-03-01T05:05:51;-3.60;99.90
24468;DHT22;12634;50.852;5.676;2023-03-01T05:08:19;-3.70;99.90
24468;DHT22;12634;50.852;5.676;2023-03-01T05:10:49;-3.80;99.90
24468;DHT22;12634;50.852;5.676;2023-03-01T05:13:16;-3.60;99.90
24468;DHT22;12634;50.852;5.676;2023-03-01T05:15:54;-3.60;99.90
24468;DHT22;12634;50.852;5.676;2023-03-01T05:18:21;-3.50;99.90
24468;DHT22;12634;50.852;5.676;2023-03-01T05:20:51;-3.50;99.90
24468;DHT22;12634;50.852;5.676;2023-03-01T05:23:22;-3.60;99.90
24468;DHT22;12634;50.852;5.676;2023-03-01T05:25:49;-3.60;99.90
24468;DHT22;12634;50.852;5.676;2023-03-01T05:28:18;-3.70;99.90
24468;DHT22;12634;50.852;5.676;2023-03-01T05:30:47;-3.80;99.90
24468;DHT22;12634;50.852;5.676;2023-03-01T05:33:17;-3.80;99.90
24468;DHT22;12634;50.852;5.676;2023-03-01T05:35:45;-3.70;99.90
24468;DHT22;12634;50.852;5.676;2023-03-01T05:38:15;-3.60;99.90
24468;DHT22;12634;50.852;5.676;2023-03-01T05:40:44;-3.70;99.90
24468;DHT22;12634;50.852;5.676;2023-03-01T05:43:12;-3.70;99.90
24468;DHT22;12634;50.852;5.676;2023-03-01T05:45:40;-3.50;99.90
24468;DHT22;12634;50.852;5.676;2023-03-01T05:48:10;-3.50;99.90
24468;DHT22;12634;50.852;5.676;2023-03-01T05:50:39;-3.50;99.90
24468;DHT22;12634;50.852;5.676;2023-03-01T05:53:09;-3.40;99.90
24468;DHT22;12634;50.852;5.676;2023-03-01T05:55:37;-3.30;99.90
24468;DHT22;12634;50.852;5.676;2023-03-01T05:58:06;-3.50;99.90
24468;DHT22;12634;50.852;5.676;2023-03-01T06:00:34;-3.50;99.90
24468;DHT22;12634;50.852;5.676;2023-03-01T06:03:02;-3.70;99.90
24468;DHT22;12634;50.852;5.676;2023-03-01T06:05:31;-3.60;99.90
24468;DHT22;12634;50.852;5.676;2023-03-01T06:07:59;-3.80;99.90
24468;DHT22;12634;50.852;5.676;2023-03-01T06:10:26;-3.70;99.90
24468;DHT22;12634;50.852;5.676;2023-03-01T06:12:54;-3.60;99.90
24468;DHT22;12634;50.852;5.676;2023-03-01T06:15:21;-3.80;99.90
24468;DHT22;12634;50.852;5.676;2023-03-01T06:17:49;-3.80;99.90
24468;DHT22;12634;50.852;5.676;2023-03-01T06:20:18;-4.00;99.90
24468;DHT22;12634;50.852;5.676;2023-03-01T06:22:47;-4.00;99.90
24468;DHT22;12634;50.852;5.676;2023-03-01T06:25:17;-4.00;99.90
24468;DHT22;12634;50.852;5.676;2023-03-01T06:27:45;-4.10;99.90
24468;DHT22;12634;50.852;5.676;2023-03-01T06:30:14;-4.10;99.90
24468;DHT22;12634;50.852;5.676;2023-03-01T06:32:42;-4.00;99.90
24468;DHT22;12634;50.852;5.676;2023-03-01T06:35:10;-3.90;99.90
24468;DHT22;12634;50.852;5.676;2023-03-01T06:37:37;-3.70;99.90
24468;DHT22;12634;50.852;5.676;2023-03-01T06:40:08;-3.50;99.90
24468;DHT22;12634;50.852;5.676;2023-03-01T06:42:38;-3.50;99.90
24468;DHT22;12634;50.852;5.676;2023-03-01T06:45:07;-3.20;99.90
24468;DHT22;12634;50.852;5.676;2023-03-01T06:47:34;-3.10;99.90
24468;DHT22;12634;50.852;5.676;2023-03-01T06:50:02;-3.10;99.90
24468;DHT22;12634;50.852;5.676;2023-03-01T06:52:30;-2.90;99.90
24468;DHT22;12634;50.852;5.676;2023-03-01T06:54:57;-2.40;99.90
24468;DHT22;12634;50.852;5.676;2023-03-01T06:57:26;-2.00;99.90
24468;DHT22;12634;50.852;5.676;2023-03-01T06:59:53;-1.80;99.90
24468;DHT22;12634;50.852;5.676;2023-03-01T07:02:20;-1.40;99.90
24468;DHT22;12634;50.852;5.676;2023-03-01T07:04:49;-1.10;99.90
24468;DHT22;12634;50.852;5.676;2023-03-01T07:07:16;-0.90;99.90
24468;DHT22;12634;50.852;5.676;2023-03-01T07:09:44;-0.60;99.90
24468;DHT22;12634;50.852;5.676;2023-03-01T07:12:12;-0.30;99.90
24468;DHT22;12634;50.852;5.676;2023-03-01T07:14:40;-0.10;99.90
24468;DHT22;12634;50.852;5.676;2023-03-01T07:17:08;0.10;99.90
24468;DHT22;12634;50.852;5.676;2023-03-01T07:19:35;0.20;99.90
24468;DHT22;12634;50.852;5.676;2023-03-01T07:22:03;0.40;99.90
24468;DHT22;12634;50.852;5.676;2023-03-01T07:24:33;0.40;99.90
24468;DHT22;12634;50.852;5.676;2023-03-01T07:27:00;0.60;99.90
24468;DHT22;12634;50.852;5.676;2023-03-01T07:29:27;0.60;99.90
24468;DHT22;12634;50.852;5.676;2023-03-01T07:31:56;0.70;99.90
24468;DHT22;12634;50.852;5.676;2023-03-01T07:34:24;0.90;99.90
24468;DHT22;12634;50.852;5.676;2023-03-01T07:36:51;1.10;99.90
24468;DHT22;12634;50.852;5.676;2023-03-01T07:39:18;1.20;99.90
24468;DHT22;12634;50.852;5.676;2023-03-01T07:41:45;1.50;99.90
24468;DHT22;12634;50.852;5.676;2023-03-01T07:44:13;1.40;99.90
24468;DHT22;12634;50.852;5.676;2023-03-01T07:46:41;1.80;99.90
24468;DHT22;12634;50.852;5.676;2023-03-01T07:49:09;2.00;99.90
24468;DHT22;12634;50.852;5.676;2023-03-01T07:51:37;1.90;99.90
24468;DHT22;12634;50.852;5.676;2023-03-01T07:54:04;2.10;99.90
24468;DHT22;12634;50.852;5.676;2023-03-01T07:56:31;2.10;99.90
24468;DHT22;12634;50.852;5.676;2023-03-01T07:58:59;2.40;99.90
24468;DHT22;12634;50.852;5.676;2023-03-01T08:01:26;2.50;99.90
24468;DHT22;12634;50.852;5.676;2023-03-01T08:03:53;2.20;99.90
24468;DHT22;12634;50.852;5.676;2023-03-01T08:06:22;2.60;99.90
24468;DHT22;12634;50.852;5.676;2023-03-01T08:08:49;2.60;99.90
24468;DHT22;12634;50.852;5.676;2023-03-01T08:11:16;3.00;99.90
24468;DHT22;12634;50.852;5.676;2023-03-01T08:13:44;3.30;99.90
24468;DHT22;12634;50.852;5.676;2023-03-01T08:16:12;3.30;99.90
24468;DHT22;12634;50.852;5.676;2023-03-01T08:18:40;2.80;99.90
24468;DHT22;12634;50.852;5.676;2023-03-01T08:21:09;3.40;99.90
24468;DHT22;12634;50.852;5.676;2023-03-01T08:23:38;3.40;99.90
24468;DHT22;12634;50.852;5.676;2023-03-01T08:26:08;3.40;99.90
24468;DHT22;12634;50.852;5.676;2023-03-01T08:28:36;3.30;99.90
24468;DHT22;12634;50.852;5.676;2023-03-01T08:31:12;3.20;99.90
24468;DHT22;12634;50.852;5.676;2023-03-01T08:33:39;3.00;99.90
24468;DHT22;12634;50.852;5.676;2023-03-01T08:36:07;3.10;99.90
24468;DHT22;12634;50.852;5.676;2023-03-01T08:38:34;3.30;99.90
24468;DHT22;12634;50.852;5.676;2023-03-01T08:41:04;3.40;99.90
24468;DHT22;12634;50.852;5.676;2023-03-01T08:43:31;3.60;99.90
24468;DHT22;12634;50.852;5.676;2023-03-01T08:45:58;3.60;99.90
24468;DHT22;12634;50.852;5.676;2023-03-01T08:48:27;3.90;99.90
24468;DHT22;12634;50.852;5.676;2023-03-01T08:50:54;3.80;99.90
24468;DHT22;12634;50.852;5.676;2023-03-01T08:53:21;3.90;99.90
24468;DHT22;12634;50.852;5.676;2023-03-01T08:55:48;3.90;99.90
24468;DHT22;12634;50.852;5.676;2023-03-01T08:58:17;4.20;99.90
24468;DHT22;12634;50.852;5.676;2023-03-01T09:00:44;4.50;99.90
24468;DHT22;12634;50.852;5.676;2023-03-01T09:03:11;4.50;99.90
24468;DHT22;12634;50.852;5.676;2023-03-01T09:05:38;4.50;99.90
24468;DHT22;12634;50.852;5.676;2023-03-01T09:08:05;4.50;99.90
24468;DHT22;12634;50.852;5.676;2023-03-01T09:10:37;4.90;99.90
24468;DHT22;12634;50.852;5.676;2023-03-01T09:13:05;5.30;99.90
24468;DHT22;12634;50.852;5.676;2023-03-01T09:15:33;5.60;99.90
24468;DHT22;12634;50.852;5.676;2023-03-01T09:18:00;5.80;99.90
24468;DHT22;12634;50.852;5.676;2023-03-01T09:20:28;5.60;99.90
24468;DHT22;12634;50.852;5.676;2023-03-01T09:22:55;5.10;99.90
24468;DHT22;12634;50.852;5.676;2023-03-01T09:25:22;5.10;99.90
24468;DHT22;12634;50.852;5.676;2023-03-01T09:27:51;5.50;99.90
24468;DHT22;12634;50.852;5.676;2023-03-01T09:30:18;5.70;99.90
24468;DHT22;12634;50.852;5.676;2023-03-01T09:32:47;6.10;99.90
24468;DHT22;12634;50.852;5.676;2023-03-01T09:35:14;6.20;99.90
24468;DHT22;12634;50.852;5.676;2023-03-01T09:37:41;6.70;99.90
24468;DHT22;12634;50.852;5.676;2023-03-01T09:40:15;6.70;99.90
24468;DHT22;12634;50.852;5.676;2023-03-01T09:42:51;6.40;99.90
24468;DHT22;12634;50.852;5.676;2023-03-01T09:45:26;6.60;99.90
24468;DHT22;12634;50.852;5.676;2023-03-01T09:47:56;6.20;99.90
24468;DHT22;12634;50.852;5.676;2023-03-01T09:50:24;5.90;99.90
24468;DHT22;12634;50.852;5.676;2023-03-01T09:53:01;6.10;99.90
24468;DHT22;12634;50.852;5.676;2023-03-01T09:55:31;6.10;99.90
24468;DHT22;12634;50.852;5.676;2023-03-01T09:58:05;6.70;99.90
24468;DHT22;12634;50.852;5.676;2023-03-01T10:00:39;6.70;99.90
24468;DHT22;12634;50.852;5.676;2023-03-01T10:03:14;6.50;99.90
24468;DHT22;12634;50.852;5.676;2023-03-01T10:06:01;6.40;99.90
24468;DHT22;12634;50.852;5.676;2023-03-01T10:08:36;6.40;99.90
24468;DHT22;12634;50.852;5.676;2023-03-01T10:11:19;6.40;99.90
24468;DHT22;12634;50.852;5.676;2023-03-01T10:13:51;6.20;99.90
24468;DHT22;12634;50.852;5.676;2023-03-01T10:16:26;6.30;99.90
24468;DHT22;12634;50.852;5.676;2023-03-01T10:19:00;6.60;99.90
24468;DHT22;12634;50.852;5.676;2023-03-01T10:21:30;6.70;99.90
24468;DHT22;12634;50.852;5.676;2023-03-01T10:24:07;6.60;99.90
24468;DHT22;12634;50.852;5.676;2023-03-01T10:26:48;6.60;99.90
24468;DHT22;12634;50.852;5.676;2023-03-01T10:29:22;6.60;99.90
24468;DHT22;12634;50.852;5.676;2023-03-01T10:31:52;6.90;99.90
24468;DHT22;12634;50.852;5.676;2023-03-01T10:34:26;6.70;99.90
24468;DHT22;12634;50.852;5.676;2023-03-01T10:36:55;6.90;99.90
24468;DHT22;12634;50.852;5.676;2023-03-01T10:39:25;6.90;99.90
24468;DHT22;12634;50.852;5.676;2023-03-01T10:41:55;7.00;99.90
24468;DHT22;12634;50.852;5.676;2023-03-01T10:44:38;7.10;99.90
24468;DHT22;12634;50.852;5.676;2023-03-01T10:47:16;6.90;99.90
24468;DHT22;12634;50.852;5.676;2023-03-01T10:49:59;7.10;99.90
24468;DHT22;12634;50.852;5.676;2023-03-01T10:52:32;6.80;99.90
24468;DHT22;12634;50.852;5.676;2023-03-01T10:55:02;7.00;99.90
24468;DHT22;12634;50.852;5.676;2023-03-01T10:57:35;6.60;99.90
24468;DHT22;12634;50.852;5.676;2023-03-01T11:00:18;6.40;99.90
24468;DHT22;12634;50.852;5.676;2023-03-01T11:02:48;6.10;99.90
24468;DHT22;12634;50.852;5.676;2023-03-01T11:05:22;5.90;99.90
24468;DHT22;12634;50.852;5.676;2023-03-01T11:07:52;6.00;99.90
24468;DHT22;12634;50.852;5.676;2023-03-01T11:10:21;6.20;99.90
24468;DHT22;12634;50.852;5.676;2023-03-01T11:12:50;6.60;99.90
24468;DHT22;12634;50.852;5.676;2023-03-01T11:15:26;6.80;99.90
24468;DHT22;12634;50.852;5.676;2023-03-01T11:17:53;7.10;99.90
24468;DHT22;12634;50.852;5.676;2023-03-01T11:20:30;7.30;99.90
24468;DHT22;12634;50.852;5.676;2023-03-01T11:23:01;7.20;99.90
24468;DHT22;12634;50.852;5.676;2023-03-01T11:25:34;7.00;99.90
24468;DHT22;12634;50.852;5.676;2023-03-01T11:28:05;7.20;99.90
24468;DHT22;12634;50.852;5.676;2023-03-01T11:30:36;7.30;99.90
24468;DHT22;12634;50.852;5.676;2023-03-01T11:33:13;6.90;99.90
24468;DHT22;12634;50.852;5.676;2023-03-01T11:35:49;6.90;99.90
24468;DHT22;12634;50.852;5.676;2023-03-01T11:38:22;6.80;99.90
24468;DHT22;12634;50.852;5.676;2023-03-01T11:40:53;7.10;99.90
24468;DHT22;12634;50.852;5.676;2023-03-01T11:43:31;7.30;99.90
24468;DHT22;12634;50.852;5.676;2023-03-01T11:49:26;8.10;99.90
24468;DHT22;12634;50.852;5.676;2023-03-01T11:51:59;8.20;99.90
24468;DHT22;12634;50.852;5.676;2023-03-01T11:54:37;8.00;99.90
24468;DHT22;12634;50.852;5.676;2023-03-01T11:57:16;7.90;99.90
24468;DHT22;12634;50.852;5.676;2023-03-01T12:00:12;8.30;99.90
24468;DHT22;12634;50.852;5.676;2023-03-01T12:05:59;8.50;99.90
24468;DHT22;12634;50.852;5.676;2023-03-01T12:08:36;8.50;99.90
24468;DHT22;12634;50.852;5.676;2023-03-01T12:11:17;8.30;99.90
24468;DHT22;12634;50.852;5.676;2023-03-01T12:17:11;8.80;99.90
24468;DHT22;12634;50.852;5.676;2023-03-01T12:19:58;8.80;99.90
24468;DHT22;12634;50.852;5.676;2023-03-01T12:22:31;8.80;99.90
24468;DHT22;12634;50.852;5.676;2023-03-01T12:28:09;9.10;99.90
24468;DHT22;12634;50.852;5.676;2023-03-01T12:30:51;9.10;99.90
24468;DHT22;12634;50.852;5.676;2023-03-01T12:33:29;9.00;99.90
24468;DHT22;12634;50.852;5.676;2023-03-01T12:36:19;9.00;99.90
24468;DHT22;12634;50.852;5.676;2023-03-01T12:38:55;8.90;99.90
24468;DHT22;12634;50.852;5.676;2023-03-01T12:41:53;9.10;99.90
24468;DHT22;12634;50.852;5.676;2023-03-01T12:44:34;9.20;99.90
24468;DHT22;12634;50.852;5.676;2023-03-01T12:47:15;8.60;99.90
24468;DHT22;12634;50.852;5.676;2023-03-01T12:49:46;8.80;99.90
24468;DHT22;12634;50.852;5.676;2023-03-01T12:52:18;9.60;99.90
24468;DHT22;12634;50.852;5.676;2023-03-01T12:54:48;9.40;99.90
24468;DHT22;12634;50.852;5.676;2023-03-01T12:57:20;9.00;99.90
24468;DHT22;12634;50.852;5.676;2023-03-01T13:00:02;8.60;99.90
24468;DHT22;12634;50.852;5.676;2023-03-01T13:02:38;9.10;99.90
24468;DHT22;12634;50.852;5.676;2023-03-01T13:05:24;8.90;99.90
24468;DHT22;12634;50.852;5.676;2023-03-01T13:07:58;9.40;99.90
24468;DHT22;12634;50.852;5.676;2023-03-01T13:10:33;9.00;99.90
24468;DHT22;12634;50.852;5.676;2023-03-01T13:13:13;9.00;99.90
24468;DHT22;12634;50.852;5.676;2023-03-01T13:15:41;9.40;99.90
24468;DHT22;12634;50.852;5.676;2023-03-01T13:18:31;9.60;99.80
24468;DHT22;12634;50.852;5.676;2023-03-01T13:21:02;9.60;99.90
24468;DHT22;12634;50.852;5.676;2023-03-01T13:23:34;10.10;99.40
24468;DHT22;12634;50.852;5.676;2023-03-01T13:26:11;9.70;99.70
24468;DHT22;12634;50.852;5.676;2023-03-01T13:28:51;9.70;99.90
24468;DHT22;12634;50.852;5.676;2023-03-01T13:34:52;10.20;99.90
24468;DHT22;12634;50.852;5.676;2023-03-01T13:37:29;10.50;99.90
24468;DHT22;12634;50.852;5.676;2023-03-01T13:39:58;11.00;97.40
24468;DHT22;12634;50.852;5.676;2023-03-01T13:42:33;10.60;97.50
24468;DHT22;12634;50.852;5.676;2023-03-01T13:47:58;10.30;98.50
24468;DHT22;12634;50.852;5.676;2023-03-01T13:50:29;9.80;98.70
24468;DHT22;12634;50.852;5.676;2023-03-01T13:53:00;10.20;97.70
24468;DHT22;12634;50.852;5.676;2023-03-01T13:55:36;10.40;97.40
24468;DHT22;12634;50.852;5.676;2023-03-01T13:58:15;10.30;96.60
24468;DHT22;12634;50.852;5.676;2023-03-01T14:00:44;10.40;96.60
24468;DHT22;12634;50.852;5.676;2023-03-01T14:03:14;10.10;97.90
24468;DHT22;12634;50.852;5.676;2023-03-01T14:05:44;10.40;96.70
24468;DHT22;12634;50.852;5.676;2023-03-01T14:08:23;10.70;97.10
24468;DHT22;12634;50.852;5.676;2023-03-01T14:13:54;10.60;97.00
24468;DHT22;12634;50.852;5.676;2023-03-01T14:16:37;10.50;97.10
24468;DHT22;12634;50.852;5.676;2023-03-01T14:19:16;11.00;97.70
24468;DHT22;12634;50.852;5.676;2023-03-01T14:21:45;10.80;97.00
24468;DHT22;12634;50.852;5.676;2023-03-01T14:24:20;10.80;96.50
24468;DHT22;12634;50.852;5.676;2023-03-01T14:26:49;10.40;96.70
24468;DHT22;12634;50.852;5.676;2023-03-01T14:29:27;10.50;97.20
24468;DHT22;12634;50.852;5.676;2023-03-01T14:32:09;10.60;97.00
24468;DHT22;12634;50.852;5.676;2023-03-01T14:34:36;10.40;97.00
24468;DHT22;12634;50.852;5.676;2023-03-01T14:37:19;10.20;98.70
24468;DHT22;12634;50.852;5.676;2023-03-01T14:39:47;10.20;97.00
24468;DHT22;12634;50.852;5.676;2023-03-01T14:42:14;10.30;96.10
24468;DHT22;12634;50.852;5.676;2023-03-01T14:44:44;10.00;97.40
24468;DHT22;12634;50.852;5.676;2023-03-01T14:47:15;9.70;96.70
24468;DHT22;12634;50.852;5.676;2023-03-01T14:49:50;10.00;97.30
24468;DHT22;12634;50.852;5.676;2023-03-01T14:52:22;10.40;97.00
24468;DHT22;12634;50.852;5.676;2023-03-01T14:54:53;10.40;95.10
24468;DHT22;12634;50.852;5.676;2023-03-01T14:57:24;10.00;95.10
24468;DHT22;12634;50.852;5.676;2023-03-01T14:59:53;9.90;95.20
24468;DHT22;12634;50.852;5.676;2023-03-01T15:02:24;9.60;95.80
24468;DHT22;12634;50.852;5.676;2023-03-01T15:04:54;9.50;95.10
24468;DHT22;12634;50.852;5.676;2023-03-01T15:07:23;9.70;95.50
24468;DHT22;12634;50.852;5.676;2023-03-01T15:09:53;9.70;94.90
24468;DHT22;12634;50.852;5.676;2023-03-01T15:12:36;9.50;96.50
24468;DHT22;12634;50.852;5.676;2023-03-01T15:15:19;9.70;95.50
24468;DHT22;12634;50.852;5.676;2023-03-01T15:17:52;9.80;95.30
24468;DHT22;12634;50.852;5.676;2023-03-01T15:20:20;9.50;96.30
24468;DHT22;12634;50.852;5.676;2023-03-01T15:22:51;9.50;96.50
24468;DHT22;12634;50.852;5.676;2023-03-01T15:25:20;9.80;96.30
24468;DHT22;12634;50.852;5.676;2023-03-01T15:27:49;9.60;96.70
24468;DHT22;12634;50.852;5.676;2023-03-01T15:30:21;9.60;96.30
24468;DHT22;12634;50.852;5.676;2023-03-01T15:33:17;9.40;96.20
24468;DHT22;12634;50.852;5.676;2023-03-01T15:35:46;9.10;96.30
24468;DHT22;12634;50.852;5.676;2023-03-01T15:38:29;9.40;95.80
24468;DHT22;12634;50.852;5.676;2023-03-01T15:40:58;9.40;95.70
24468;DHT22;12634;50.852;5.676;2023-03-01T15:43:46;9.50;95.20
24468;DHT22;12634;50.852;5.676;2023-03-01T15:46:21;9.00;95.70
24468;DHT22;12634;50.852;5.676;2023-03-01T15:48:54;9.10;96.10
24468;DHT22;12634;50.852;5.676;2023-03-01T15:51:33;9.00;95.90
24468;DHT22;12634;50.852;5.676;2023-03-01T15:54:04;8.90;95.60
24468;DHT22;12634;50.852;5.676;2023-03-01T15:56:32;8.70;95.20
24468;DHT22;12634;50.852;5.676;2023-03-01T15:59:00;8.70;95.10
24468;DHT22;12634;50.852;5.676;2023-03-01T16:01:29;8.70;95.60
24468;DHT22;12634;50.852;5.676;2023-03-01T16:03:57;8.60;95.50
24468;DHT22;12634;50.852;5.676;2023-03-01T16:06:25;8.60;95.80
24468;DHT22;12634;50.852;5.676;2023-03-01T16:08:52;8.30;96.30
24468;DHT22;12634;50.852;5.676;2023-03-01T16:11:20;8.20;97.10
24468;DHT22;12634;50.852;5.676;2023-03-01T16:13:47;8.40;96.50
24468;DHT22;12634;50.852;5.676;2023-03-01T16:16:16;8.30;96.10
24468;DHT22;12634;50.852;5.676;2023-03-01T16:18:45;8.20;96.40
24468;DHT22;12634;50.852;5.676;2023-03-01T16:21:18;8.00;96.80
24468;DHT22;12634;50.852;5.676;2023-03-01T16:23:46;8.00;96.70